This is the latest recevied weather packets stored in our database for station/object KC9NBZ. If no packets are shown the sender has not sent any weather packets the latest 10 day(s).
| Time | Temp. | Humidity | Pressure | Rain* | Wind** | Luminosity | Snow |
|---|---|---|---|---|---|---|---|
| 1777874120 | 6.11° C | 86% | 1003.8 hPa | 0 mm | - | 0 W/m² | - |
| 1777872321 | 6.67° C | 85% | 1004.1 hPa | 0 mm | - | 0 W/m² | - |
| 1777871121 | 7.22° C | 82% | 1004.1 hPa | 0 mm | - | 0 W/m² | - |
| 1777867522 | 10° C | 69% | 1004.4 hPa | 0 mm | - | 0 W/m² | - |
| 1777859140 | 15° C | 57% | 1004 hPa | 0 mm | - | 0 W/m² | - |
| 1777854939 | 19.44° C | 46% | 1003.7 hPa | 0 mm | - | 23 W/m² | - |
| 1777850720 | 20.56° C | 42% | 1003.4 hPa | 0 mm | - | 158 W/m² | - |
| 1777849521 | 20.56° C | 41% | 1003.5 hPa | 0 mm | - | 212 W/m² | - |
| 1777848321 | 20.56° C | 44% | 1003.7 hPa | 0 mm | - | 270 W/m² | - |
| 1777845918 | 20° C | 44% | 1003.8 hPa | 0 mm | - | 392 W/m² | - |
| 1777843519 | 19.44° C | 46% | 1004 hPa | 0 mm | - | 507 W/m² | - |
| 1777833919 | 17.22° C | 48% | 1005.8 hPa | 0 mm | - | 823 W/m² | - |
| 1777832119 | 16.67° C | 50% | 1006.1 hPa | 0 mm | - | 837 W/m² | - |
| 1777829720 | 16.11° C | 52% | 1006.6 hPa | 0 mm | - | 841 W/m² | - |
| 1777827920 | 16.11° C | 53% | 1007 hPa | 0 mm | - | 826 W/m² | - |
| 1777826721 | 15.56° C | 55% | 1007.4 hPa | 0 mm | - | 808 W/m² | - |
| 1777826122 | 15° C | 55% | 1007.5 hPa | 0 mm | - | 798 W/m² | - |
| 1777825521 | 14.44° C | 56% | 1007.7 hPa | 0 mm | - | 786 W/m² | - |
| 1777823119 | 13.89° C | 62% | 1008.4 hPa | 0 mm | - | 722 W/m² | - |
| 1777822523 | 13.33° C | 62% | 1008.5 hPa | 0 mm | - | 682 W/m² | - |
| 1777815921 | 11.11° C | 67% | 1009.6 hPa | 0 mm | - | 167 W/m² | - |
| 1777813539 | 10.56° C | 66% | 1010.1 hPa | 0 mm | - | 41 W/m² | - |
| 1777811719 | 10.56° C | 64% | 1010.3 hPa | 0 mm | - | 112 W/m² | - |
| 1777808121 | 9.44° C | 57% | 1010.2 hPa | 0 mm | - | 18 W/m² | - |
| 1777806321 | 9.44° C | 55% | 1010.1 hPa | 0 mm | - | 8 W/m² | - |
* Rain latest hour (hover to see other rain measurements)
** Current wind speed in m/s (hover to see current wind gust speed)